Denver, Colorado
Traffic Map
Current Weather Conditions
Denver, Colorado
Broken Clouds
Broken Clouds
56°
Feels Like: 56°
Wind Chill: 56° Ceiling: 20000
Heat Index: 56° Visibility: 10mi
Dew Point: 34° Wind: 8mph
Humidity: 43% Direction: 70° (ENE)
Pressure: 29.93in Gusts: 0mph
Raw Report DataKBKF 220058Z 07007KT 10SM FEW070 SCT120 BKN200 13/01 A2993 RMK AO2A SLP108 T01340009
Traffic Incident Summary
Active as of:
Severity:
Category:
InformationThere was an issue retrieving the traffic information for this location. Please try a different location or try again shortly.
Advertisements
Track Severe Weather on mobile